createdAt,value
2018-03-04T00:00:45.511Z,96344.54
2018-03-04T00:01:49.153Z,96349.32
2018-03-04T00:02:52.478Z,96340.84
2018-03-04T00:03:55.821Z,96337.55
2018-03-04T00:04:59.230Z,96345.57
2018-03-04T00:06:02.512Z,96347.17
2018-03-04T00:07:05.904Z,96351.00
2018-03-04T00:08:09.572Z,96345.88
2018-03-04T00:09:12.910Z,96345.48
2018-03-04T00:10:16.350Z,96344.67
2018-03-04T00:11:19.630Z,96341.22
2018-03-04T00:12:22.990Z,96337.25
2018-03-04T00:13:26.328Z,96337.63
2018-03-04T00:14:29.877Z,96341.30
2018-03-04T00:15:33.243Z,96337.02
2018-03-04T00:16:36.676Z,96340.25
2018-03-04T00:17:40.988Z,96338.90
2018-03-04T00:18:44.460Z,96339.45
2018-03-04T00:19:47.916Z,96339.09
2018-03-04T00:20:51.436Z,96336.04
2018-03-04T00:21:54.817Z,96341.80
2018-03-04T00:22:58.552Z,96339.54
2018-03-04T00:24:02.059Z,96343.52
2018-03-04T00:25:05.436Z,96330.14
2018-03-04T00:26:09.131Z,96332.38
2018-03-04T00:27:12.614Z,96333.90
2018-03-04T00:28:16.017Z,96334.87
2018-03-04T00:29:19.490Z,96341.76
2018-03-04T00:30:22.972Z,96343.32
2018-03-04T00:31:26.680Z,96347.98
2018-03-04T00:32:30.245Z,96348.13
2018-03-04T00:33:33.762Z,96348.89
2018-03-04T00:34:37.158Z,96351.17
2018-03-04T00:35:40.693Z,96351.75
2018-03-04T00:36:44.093Z,96351.18
2018-03-04T00:37:47.884Z,96348.08
2018-03-04T00:38:51.337Z,96359.03
2018-03-04T00:39:54.776Z,96358.46
2018-03-04T00:40:58.351Z,96352.24
2018-03-04T00:42:01.932Z,96352.30
2018-03-04T00:43:05.444Z,96350.38
2018-03-04T00:44:08.953Z,96352.24
2018-03-04T00:45:12.489Z,96355.50
2018-03-04T00:46:15.929Z,96358.58
2018-03-04T00:47:19.416Z,96353.76
2018-03-04T00:48:23.024Z,96354.50
2018-03-04T00:49:26.783Z,96357.78
2018-03-04T00:50:30.223Z,96356.84
2018-03-04T00:51:33.678Z,96352.47
2018-03-04T00:52:37.106Z,96355.68
2018-03-04T00:53:40.604Z,96363.53
2018-03-04T00:54:44.090Z,96359.13
2018-03-04T00:55:47.838Z,96357.58
2018-03-04T00:56:51.244Z,96360.06
2018-03-04T00:57:54.704Z,96363.91
2018-03-04T00:58:58.095Z,96361.11
2018-03-04T01:00:01.520Z,96358.64
2018-03-04T01:01:05.992Z,96364.78
2018-03-04T01:02:09.785Z,96366.30
2018-03-04T01:03:13.271Z,96354.80
2018-03-04T01:04:16.585Z,96361.53
2018-03-04T01:05:20.001Z,96350.69
2018-03-04T01:06:23.531Z,96362.64
2018-03-04T01:07:27.241Z,96354.45
2018-03-04T01:08:31.128Z,96357.77
2018-03-04T01:09:34.822Z,96359.45
2018-03-04T01:10:38.452Z,96356.37
2018-03-04T01:11:42.105Z,96355.80
2018-03-04T01:12:45.744Z,96352.97
2018-03-04T01:13:49.272Z,96349.72
2018-03-04T01:14:53.014Z,96356.23
2018-03-04T01:15:56.713Z,96354.89
2018-03-04T01:17:00.246Z,96355.47
2018-03-04T01:18:03.848Z,96350.50
2018-03-04T01:19:07.343Z,96352.42
2018-03-04T01:20:10.882Z,96348.78
2018-03-04T01:21:14.288Z,96349.16
2018-03-04T01:22:17.640Z,96344.54
2018-03-04T01:23:21.169Z,96353.38
2018-03-04T01:24:25.325Z,96344.94
2018-03-04T01:25:28.764Z,96343.99
2018-03-04T01:26:32.726Z,96350.87
2018-03-04T01:27:36.211Z,96340.55
2018-03-04T01:28:40.001Z,96340.55
2018-03-04T01:29:43.502Z,96343.45
2018-03-04T01:30:47.263Z,96350.14
2018-03-04T01:31:50.668Z,96345.20
2018-03-04T01:32:54.515Z,96352.69
2018-03-04T01:33:58.295Z,96349.00
2018-03-04T01:35:01.820Z,96348.23
2018-03-04T01:36:05.523Z,96356.75
2018-03-04T01:37:09.570Z,96346.03
2018-03-04T01:38:13.212Z,96352.91
2018-03-04T01:39:17.014Z,96356.94
2018-03-04T01:40:21.262Z,96348.13
2018-03-04T01:41:24.601Z,96355.28
2018-03-04T01:42:28.163Z,96350.84
2018-03-04T01:43:31.802Z,96351.45
2018-03-04T01:44:35.445Z,96356.77
2018-03-04T01:45:39.300Z,96360.23
2018-03-04T01:46:42.851Z,96347.19
2018-03-04T01:47:46.352Z,96356.84
2018-03-04T01:48:49.935Z,96356.27
2018-03-04T01:49:53.515Z,96352.23
2018-03-04T01:50:57.006Z,96351.86
2018-03-04T01:52:00.700Z,96348.22
2018-03-04T01:53:04.184Z,96354.14
2018-03-04T01:54:07.708Z,96354.34
2018-03-04T01:55:11.213Z,96346.50
2018-03-04T01:56:14.828Z,96351.50
2018-03-04T01:57:18.469Z,96354.75
2018-03-04T01:58:22.292Z,96351.86
2018-03-04T01:59:25.995Z,96357.63
2018-03-04T02:00:29.589Z,96353.21
2018-03-04T02:01:33.183Z,96354.34
2018-03-04T02:02:36.796Z,96352.24
2018-03-04T02:03:40.291Z,96353.59
2018-03-04T02:04:44.239Z,96356.66
2018-03-04T02:05:47.902Z,96345.91
2018-03-04T02:06:51.606Z,96348.41
2018-03-04T02:07:55.389Z,96349.93
2018-03-04T02:08:59.044Z,96346.66
2018-03-04T02:10:02.735Z,96341.13
2018-03-04T02:11:06.851Z,96344.59
2018-03-04T02:12:10.346Z,96345.54
2018-03-04T02:13:13.910Z,96347.08
2018-03-04T02:14:17.714Z,96348.79
2018-03-04T02:15:21.586Z,96349.94
2018-03-04T02:16:25.436Z,96343.81
2018-03-04T02:17:29.534Z,96339.98
2018-03-04T02:18:33.260Z,96334.98
2018-03-04T02:19:37.037Z,96341.53
2018-03-04T02:20:40.722Z,96342.47
2018-03-04T02:21:44.400Z,96342.47
2018-03-04T02:22:47.813Z,96346.68
2018-03-04T02:23:52.012Z,96347.83
2018-03-04T02:24:55.718Z,96346.09
2018-03-04T02:25:59.458Z,96345.33
2018-03-04T02:27:03.076Z,96345.71
2018-03-04T02:28:07.045Z,96346.48
2018-03-04T02:29:10.605Z,96344.55
2018-03-04T02:30:14.781Z,96341.31
2018-03-04T02:31:18.287Z,96340.36
2018-03-04T02:32:22.031Z,96343.60
2018-03-04T02:33:25.469Z,96340.72
2018-03-04T02:34:28.915Z,96335.91
2018-03-04T02:35:32.557Z,96338.98
2018-03-04T02:36:36.497Z,96337.59
2018-03-04T02:37:40.347Z,96333.00
2018-03-04T02:38:44.081Z,96330.16
2018-03-04T02:39:47.527Z,96330.69
2018-03-04T02:40:51.331Z,96322.23
2018-03-04T02:41:55.253Z,96324.16
2018-03-04T02:42:59.118Z,96326.06
2018-03-04T02:44:02.826Z,96324.14
2018-03-04T02:45:06.441Z,96326.25
2018-03-04T02:46:09.900Z,96328.14
2018-03-04T02:47:13.735Z,96337.75
2018-03-04T02:48:17.357Z,96333.14
2018-03-04T02:49:21.289Z,96336.97
2018-03-04T02:50:25.533Z,96330.64
2018-03-04T02:51:29.151Z,96333.92
2018-03-04T02:52:32.918Z,96334.67
2018-03-04T02:53:36.429Z,96335.81
2018-03-04T02:54:40.346Z,96336.78
2018-03-04T02:55:44.520Z,96336.97
2018-03-04T02:56:48.105Z,96333.13
2018-03-04T02:57:51.562Z,96331.53
2018-03-04T02:59:02.117Z,96333.08
2018-03-04T03:00:05.693Z,96323.34
2018-03-04T03:01:09.347Z,96320.42
2018-03-04T03:02:13.218Z,96318.56
2018-03-04T03:03:16.780Z,96317.94
2018-03-04T03:04:20.353Z,96323.08
2018-03-04T03:05:23.952Z,96324.81
2018-03-04T03:06:27.852Z,96326.36
2018-03-04T03:07:31.637Z,96323.31
2018-03-04T03:08:35.611Z,96329.22
2018-03-04T03:09:39.145Z,96338.81
2018-03-04T03:10:42.767Z,96330.45
2018-03-04T03:11:46.324Z,96329.44
2018-03-04T03:12:50.243Z,96322.53
2018-03-04T03:13:53.769Z,96327.59
2018-03-04T03:14:57.612Z,96318.21
2018-03-04T03:16:01.173Z,96306.33
2018-03-04T03:17:06.067Z,96313.06
2018-03-04T03:18:09.980Z,96314.98
2018-03-04T03:19:13.497Z,96321.88
2018-03-04T03:20:16.942Z,96324.91
2018-03-04T03:21:20.669Z,96319.34
2018-03-04T03:22:24.130Z,96321.08
2018-03-04T03:23:27.723Z,96323.95
2018-03-04T03:24:31.329Z,96315.50
2018-03-04T03:25:34.728Z,96318.97
2018-03-04T03:26:38.400Z,96319.14
2018-03-04T03:27:42.362Z,96312.83
2018-03-04T03:28:46.074Z,96315.72
2018-03-04T03:29:49.724Z,96311.85
2018-03-04T03:30:53.868Z,96308.60
2018-03-04T03:31:57.909Z,96315.88
2018-03-04T03:33:01.585Z,96304.56
2018-03-04T03:34:05.859Z,96305.46
2018-03-04T03:35:09.268Z,96300.27
2018-03-04T03:36:12.931Z,96301.68
2018-03-04T03:37:17.282Z,96301.87
2018-03-04T03:38:21.108Z,96307.77
2018-03-04T03:39:24.377Z,96303.36
2018-03-04T03:40:28.122Z,96299.69
2018-03-04T03:41:31.650Z,96298.76
2018-03-04T03:42:35.329Z,96288.44
2018-03-04T03:43:38.639Z,96293.81
2018-03-04T03:44:42.059Z,96296.50
2018-03-04T03:45:45.438Z,96300.09
2018-03-04T03:46:48.830Z,96292.03
2018-03-04T03:47:52.347Z,96294.89
2018-03-04T03:48:55.562Z,96293.56
2018-03-04T03:49:58.932Z,96292.59
2018-03-04T03:51:02.375Z,96292.20
2018-03-04T03:52:05.697Z,96290.11
2018-03-04T03:53:08.944Z,96286.66
2018-03-04T03:54:12.276Z,96282.81
2018-03-04T03:55:15.494Z,96281.25
2018-03-04T03:56:19.005Z,96279.34
2018-03-04T03:57:22.852Z,96278.00
2018-03-04T03:58:26.311Z,96281.43
2018-03-04T03:59:29.614Z,96277.20
2018-03-04T04:00:33.071Z,96279.64
2018-03-04T04:01:36.842Z,96283.48
2018-03-04T04:02:40.274Z,96294.47
2018-03-04T04:03:44.178Z,96288.09
2018-03-04T04:04:47.542Z,96296.50
2018-03-04T04:05:50.971Z,96283.08
2018-03-04T04:06:54.365Z,96277.50
2018-03-04T04:07:57.409Z,96277.31
2018-03-04T04:09:00.685Z,96266.95
2018-03-04T04:10:04.181Z,96268.66
2018-03-04T04:11:07.435Z,96271.70
2018-03-04T04:12:10.889Z,96273.38
2018-03-04T04:13:14.370Z,96269.59
2018-03-04T04:14:17.589Z,96267.44
2018-03-04T04:15:20.684Z,96269.13
2018-03-04T04:16:24.533Z,96262.78
2018-03-04T04:17:28.067Z,96267.18
2018-03-04T04:18:31.550Z,96264.70
2018-03-04T04:19:35.254Z,96261.20
2018-03-04T04:20:38.397Z,96259.05
2018-03-04T04:21:41.492Z,96263.42
2018-03-04T04:22:45.517Z,96254.97
2018-03-04T04:23:48.743Z,96263.98
2018-03-04T04:24:51.998Z,96266.66
2018-03-04T04:25:55.291Z,96263.05
2018-03-04T04:26:58.754Z,96263.21
2018-03-04T04:28:02.254Z,96261.66
2018-03-04T04:29:06.174Z,96262.97
2018-03-04T04:30:09.444Z,96255.67
2018-03-04T04:31:12.710Z,96259.86
2018-03-04T04:32:16.269Z,96260.62
2018-03-04T04:33:19.723Z,96257.98
2018-03-04T04:34:23.015Z,96254.92
2018-03-04T04:35:26.445Z,96249.69
2018-03-04T04:36:29.607Z,96256.63
2018-03-04T04:37:32.779Z,96255.93
2018-03-04T04:38:36.221Z,96247.70
2018-03-04T04:39:39.622Z,96245.02
2018-03-04T04:40:42.913Z,96241.35
2018-03-04T04:41:46.298Z,96240.60
2018-03-04T04:42:55.278Z,96247.09
2018-03-04T04:43:58.720Z,96241.52
2018-03-04T04:45:01.950Z,96240.04
2018-03-04T04:46:05.137Z,96245.96
2018-03-04T04:47:08.398Z,96244.78
2018-03-04T04:48:12.194Z,96241.14
2018-03-04T04:49:15.474Z,96241.34
2018-03-04T04:50:18.651Z,96235.02
2018-03-04T04:51:22.364Z,96239.44
2018-03-04T04:52:25.657Z,96244.80
2018-03-04T04:53:28.843Z,96244.57
2018-03-04T04:54:32.316Z,96244.75
2018-03-04T04:56:49.289Z,96242.16
2018-03-04T04:57:52.401Z,96242.77
2018-03-04T04:58:55.478Z,96253.41
2018-03-04T04:59:58.507Z,96253.84
2018-03-04T05:01:02.161Z,96249.39
2018-03-04T05:02:05.454Z,96250.01
2018-03-04T05:03:08.867Z,96250.77
2018-03-04T05:04:11.869Z,96250.58
2018-03-04T05:05:15.069Z,96246.80
2018-03-04T05:06:18.128Z,96249.91
2018-03-04T05:07:21.527Z,96246.68
2018-03-04T05:08:25.020Z,96244.19
2018-03-04T05:09:28.290Z,96246.48
2018-03-04T05:10:31.498Z,96248.22
2018-03-04T05:11:34.827Z,96244.20
2018-03-04T05:12:38.116Z,96253.20
2018-03-04T05:13:41.552Z,96258.36
2018-03-04T05:14:44.902Z,96257.77
2018-03-04T05:15:48.202Z,96255.33
2018-03-04T05:16:51.451Z,96261.08
2018-03-04T05:17:54.951Z,96258.41
2018-03-04T05:18:58.444Z,96258.85
2018-03-04T05:20:01.994Z,96261.68
2018-03-04T05:21:05.122Z,96261.86
2018-03-04T05:22:08.195Z,96266.45
2018-03-04T05:23:11.622Z,96272.80
2018-03-04T05:24:14.971Z,96266.71
2018-03-04T05:25:18.379Z,96268.78
2018-03-04T05:26:22.107Z,96267.42
2018-03-04T05:27:25.254Z,96256.64
2018-03-04T05:28:29.501Z,96268.02
2018-03-04T05:29:32.671Z,96263.45
2018-03-04T05:30:35.787Z,96254.27
2018-03-04T05:31:39.125Z,96256.76
2018-03-04T05:32:42.541Z,96258.27
2018-03-04T05:33:45.553Z,96256.36
2018-03-04T05:34:48.807Z,96251.59
2018-03-04T05:35:52.219Z,96262.70
2018-03-04T05:36:55.383Z,96249.08
2018-03-04T05:37:58.787Z,96256.89
2018-03-04T05:39:02.542Z,96256.88
2018-03-04T05:40:05.785Z,96262.26
2018-03-04T05:41:09.012Z,96268.07
2018-03-04T05:42:12.080Z,96263.29
2018-03-04T05:43:15.267Z,96260.59
2018-03-04T05:44:18.418Z,96260.13
2018-03-04T05:45:21.867Z,96258.38
2018-03-04T05:46:25.158Z,96255.72
2018-03-04T05:47:28.407Z,96257.06
2018-03-04T05:48:31.819Z,96263.83
2018-03-04T05:49:35.004Z,96274.70
2018-03-04T05:50:38.248Z,96274.70
2018-03-04T05:51:42.116Z,96277.26
2018-03-04T05:52:45.476Z,96280.10
2018-03-04T05:53:48.913Z,96274.40
2018-03-04T05:54:52.323Z,96278.05
2018-03-04T05:55:55.660Z,96278.62
2018-03-04T05:56:59.103Z,96276.13
2018-03-04T05:58:02.838Z,96277.66
2018-03-04T05:59:06.348Z,96279.03
2018-03-04T06:00:09.654Z,96279.20
2018-03-04T06:01:13.308Z,96282.69
2018-03-04T06:02:16.518Z,96275.01
2018-03-04T06:03:20.008Z,96270.20
2018-03-04T06:04:23.768Z,96271.56
2018-03-04T06:05:27.353Z,96275.20
2018-03-04T06:06:30.846Z,96271.75
2018-03-04T06:07:34.417Z,96269.05
2018-03-04T06:08:38.270Z,96273.00
2018-03-04T06:09:41.636Z,96277.09
2018-03-04T06:10:45.059Z,96277.84
2018-03-04T06:11:48.341Z,96278.22
2018-03-04T06:12:51.825Z,96284.75
2018-03-04T06:13:55.546Z,96285.52
2018-03-04T06:14:59.208Z,96285.71
2018-03-04T06:16:03.031Z,96283.61
2018-03-04T06:23:15.776Z,96286.69
2018-03-04T06:24:19.293Z,96284.39
2018-03-04T06:25:22.834Z,96293.41
2018-03-04T06:26:26.371Z,96289.80
2018-03-04T06:27:29.971Z,96294.56
2018-03-04T06:28:33.420Z,96289.92
2018-03-04T06:29:37.529Z,96283.42
2018-03-04T06:30:41.228Z,96288.23
2018-03-04T06:31:45.562Z,96282.67
2018-03-04T06:32:49.336Z,96285.13
2018-03-04T06:33:52.935Z,96282.06
2018-03-04T06:34:56.360Z,96275.55
2018-03-04T06:36:00.242Z,96278.61
2018-03-04T06:37:03.835Z,96282.86
2018-03-04T06:38:07.672Z,96275.31
2018-03-04T06:39:11.529Z,96279.77
2018-03-04T06:40:15.134Z,96275.88
2018-03-04T06:41:18.717Z,96280.28
2018-03-04T06:42:22.788Z,96278.34
2018-03-04T06:43:26.576Z,96275.84
2018-03-04T06:44:30.184Z,96282.76
2018-03-04T06:45:33.716Z,96284.88
2018-03-04T06:46:37.466Z,96285.80
2018-03-04T06:47:41.197Z,96278.48
2018-03-04T06:48:44.949Z,96287.26
2018-03-04T06:49:48.558Z,96285.39
2018-03-04T06:50:52.203Z,96285.01
2018-03-04T06:51:55.745Z,96282.13
2018-03-04T06:52:59.640Z,96279.58
2018-03-04T06:54:03.118Z,96283.02
2018-03-04T06:55:07.215Z,96285.29
2018-03-04T06:56:11.238Z,96286.98
2018-03-04T06:57:14.934Z,96282.97
2018-03-04T06:58:18.519Z,96279.69
2018-03-04T06:59:22.123Z,96281.93
2018-03-04T07:00:25.653Z,96279.63
2018-03-04T07:01:29.556Z,96280.67
2018-03-04T07:02:33.230Z,96281.61
2018-03-04T07:03:36.813Z,96282.74
2018-03-04T07:04:40.364Z,96284.62
2018-03-04T07:05:44.065Z,96283.81
2018-03-04T07:06:47.751Z,96283.03
2018-03-04T07:07:51.447Z,96285.09
2018-03-04T07:08:55.362Z,96288.16
2018-03-04T07:09:58.911Z,96299.89
2018-03-04T07:11:02.500Z,96302.80
2018-03-04T07:12:06.422Z,96304.16
2018-03-04T07:13:10.143Z,96292.09
2018-03-04T07:14:14.354Z,96296.67
2018-03-04T07:15:18.206Z,96300.50
2018-03-04T07:16:21.926Z,96301.30
2018-03-04T07:17:25.555Z,96303.81
2018-03-04T07:18:29.247Z,96302.73
2018-03-04T07:19:32.799Z,96306.57
2018-03-04T07:20:36.861Z,96303.48
2018-03-04T07:21:40.479Z,96304.36
2018-03-04T07:22:44.251Z,96307.59
2018-03-04T07:23:47.930Z,96301.48
2018-03-04T07:24:51.345Z,96299.63
2018-03-04T07:25:54.842Z,96293.53
2018-03-04T07:26:58.579Z,96299.09
2018-03-04T07:28:02.096Z,96302.36
2018-03-04T07:29:05.822Z,96301.18
2018-03-04T07:30:09.531Z,96300.91
2018-03-04T07:31:13.192Z,96303.02
2018-03-04T07:32:16.654Z,96307.22
2018-03-04T07:33:20.582Z,96303.00
2018-03-04T07:34:24.408Z,96303.59
2018-03-04T07:35:28.222Z,96298.56
2018-03-04T07:36:31.740Z,96300.48
2018-03-04T07:37:35.243Z,96303.14
2018-03-04T07:38:38.649Z,96291.72
2018-03-04T07:39:42.557Z,96294.77
2018-03-04T07:40:46.133Z,96288.23
2018-03-04T07:41:49.534Z,96286.85
2018-03-04T07:42:53.048Z,96293.15
2018-03-04T07:43:56.547Z,96289.48
2018-03-04T07:45:00.103Z,96291.39
2018-03-04T07:46:03.992Z,96288.45
2018-03-04T07:47:07.484Z,96286.06
2018-03-04T07:48:10.960Z,96293.18
2018-03-04T07:49:14.558Z,96289.95
2018-03-04T07:50:18.078Z,96285.48
2018-03-04T07:51:21.534Z,96282.61
2018-03-04T07:52:25.325Z,96292.42
2018-03-04T07:53:28.732Z,96291.42
2018-03-04T07:54:32.573Z,96288.94
2018-03-04T07:55:36.005Z,96288.39
2018-03-04T07:56:39.401Z,96287.79
2018-03-04T07:57:42.907Z,96286.44
2018-03-04T07:58:46.708Z,96285.97
2018-03-04T07:59:50.160Z,96286.06
2018-03-04T08:00:53.642Z,96281.47
2018-03-04T08:01:57.122Z,96287.24
2018-03-04T08:03:00.632Z,96286.91
2018-03-04T08:04:04.002Z,96287.52
2018-03-04T08:05:07.609Z,96288.87
2018-03-04T08:06:11.165Z,96288.87
2018-03-04T08:07:14.378Z,96288.41
2018-03-04T08:08:17.661Z,96279.33
2018-03-04T08:09:20.959Z,96289.25
2018-03-04T08:10:24.438Z,96285.80
2018-03-04T08:11:28.387Z,96286.11
2018-03-04T08:12:31.823Z,96282.95
2018-03-04T08:13:35.206Z,96284.48
2018-03-04T08:14:38.576Z,96283.11
2018-03-04T08:15:42.184Z,96274.94
2018-03-04T08:16:45.552Z,96277.34
2018-03-04T08:17:49.477Z,96275.34
2018-03-04T08:18:52.939Z,96284.08
2018-03-04T08:19:56.418Z,96275.67
2018-03-04T08:20:59.790Z,96281.46
2018-03-04T08:22:03.217Z,96285.27
2018-03-04T08:23:06.640Z,96279.22
2018-03-04T08:24:10.083Z,96266.72
2018-03-04T08:25:13.546Z,96271.03
2018-03-04T08:26:17.009Z,96270.15
2018-03-04T08:27:20.463Z,96269.81
2018-03-04T08:28:23.948Z,96267.88
2018-03-04T08:29:27.245Z,96271.75
2018-03-04T08:30:31.033Z,96263.48
2018-03-04T08:31:34.410Z,96269.23
2018-03-04T08:32:37.862Z,96274.28
2018-03-04T08:33:41.190Z,96277.40
2018-03-04T08:34:44.477Z,96279.94
2018-03-04T08:35:47.780Z,96285.88
2018-03-04T08:36:51.331Z,96288.13
2018-03-04T08:37:54.534Z,96286.66
2018-03-04T08:38:57.785Z,96286.53
2018-03-04T08:40:00.983Z,96289.86
2018-03-04T08:41:04.291Z,96288.89
2018-03-04T08:42:07.612Z,96288.97
2018-03-04T08:43:11.291Z,96287.82
2018-03-04T08:44:14.520Z,96289.14
2018-03-04T08:45:17.794Z,96291.73
2018-03-04T08:46:21.112Z,96297.19
2018-03-04T08:47:24.892Z,96293.08
2018-03-04T08:48:28.296Z,96298.94
2018-03-04T08:49:31.630Z,96296.20
2018-03-04T08:50:34.893Z,96300.44
2018-03-04T08:51:38.135Z,96301.34
2018-03-04T08:52:41.655Z,96306.63
2018-03-04T08:53:45.178Z,96306.44
2018-03-04T08:54:48.857Z,96309.98
2018-03-04T08:55:52.264Z,96308.94
2018-03-04T08:56:55.563Z,96314.27
2018-03-04T08:57:59.003Z,96308.48
2018-03-04T08:59:02.431Z,96322.11
2018-03-04T09:00:05.870Z,96317.89
2018-03-04T09:01:09.312Z,96318.49
2018-03-04T09:02:12.729Z,96311.55
2018-03-04T09:03:16.031Z,96310.38
2018-03-04T09:04:19.316Z,96308.45
2018-03-04T09:05:22.642Z,96307.11
2018-03-04T09:06:26.026Z,96306.60
2018-03-04T09:07:30.058Z,96310.38
2018-03-04T09:08:33.459Z,96305.86
2018-03-04T09:09:36.783Z,96302.53
2018-03-04T09:10:40.092Z,96302.31
2018-03-04T09:11:43.388Z,96310.89
2018-03-04T09:12:46.722Z,96301.44
2018-03-04T09:13:50.277Z,96295.42
2018-03-04T09:14:53.574Z,96289.03
2018-03-04T09:15:56.884Z,96287.66
2018-03-04T09:17:00.160Z,96301.12
2018-03-04T09:18:04.131Z,96297.11
2018-03-04T09:19:07.399Z,96308.66
2018-03-04T09:20:11.028Z,96308.69
2018-03-04T09:21:14.316Z,96303.41
2018-03-04T09:22:17.599Z,96315.71
2018-03-04T09:23:20.886Z,96309.38
2018-03-04T09:24:24.253Z,96306.41
2018-03-04T09:25:27.593Z,96314.84
2018-03-04T09:26:31.232Z,96311.39
2018-03-04T09:27:34.515Z,96307.03
2018-03-04T09:28:37.954Z,96308.25
2018-03-04T09:29:41.254Z,96302.46
2018-03-04T09:30:44.571Z,96304.23
2018-03-04T09:31:48.282Z,96302.34
2018-03-04T09:32:51.994Z,96303.48
2018-03-04T09:33:55.304Z,96306.89
2018-03-04T09:34:58.748Z,96305.28
2018-03-04T09:36:02.125Z,96302.81
2018-03-04T09:37:05.404Z,96312.01
2018-03-04T09:38:08.681Z,96300.64
2018-03-04T09:39:12.237Z,96302.28
2018-03-04T09:40:15.649Z,96300.61
2018-03-04T09:41:19.059Z,96303.67
2018-03-04T09:42:22.355Z,96292.92
2018-03-04T09:43:25.849Z,96310.41
2018-03-04T09:44:29.203Z,96302.83
2018-03-04T09:45:32.825Z,96308.02
2018-03-04T09:46:36.039Z,96301.67
2018-03-04T09:47:39.761Z,96303.58
2018-03-04T09:48:43.004Z,96302.19
2018-03-04T09:49:46.325Z,96297.64
2018-03-04T09:50:49.627Z,96298.58
2018-03-04T09:51:53.298Z,96289.45
2018-03-04T09:52:56.633Z,96297.17
2018-03-04T09:53:59.878Z,96290.74
2018-03-04T09:55:03.540Z,96287.27
2018-03-04T09:56:06.791Z,96286.41
2018-03-04T09:57:10.058Z,96298.70
2018-03-04T09:58:13.474Z,96301.33
2018-03-04T09:59:16.838Z,96296.55
2018-03-04T10:00:20.012Z,96288.33
2018-03-04T10:01:23.579Z,96289.39
2018-03-04T10:02:26.845Z,96285.83
2018-03-04T10:03:30.966Z,96282.85
2018-03-04T10:04:34.506Z,96279.94
2018-03-04T10:05:38.951Z,96278.49
2018-03-04T10:06:42.254Z,96281.57
2018-03-04T10:07:45.461Z,96279.18
2018-03-04T10:08:48.901Z,96276.45
2018-03-04T10:09:52.199Z,96274.61
2018-03-04T10:10:55.510Z,96272.68
2018-03-04T10:11:58.908Z,96268.45
2018-03-04T10:13:02.353Z,96274.97
2018-03-04T10:14:05.651Z,96273.95
2018-03-04T10:15:08.927Z,96275.53
2018-03-04T10:16:13.023Z,96273.34
2018-03-04T10:17:16.272Z,96272.77
2018-03-04T10:18:19.847Z,96261.22
2018-03-04T10:19:23.155Z,96272.59
2018-03-04T10:20:26.499Z,96266.87
2018-03-04T10:21:29.682Z,96269.15
2018-03-04T10:22:33.356Z,96264.72
2018-03-04T10:23:36.678Z,96268.14
2018-03-04T10:24:40.038Z,96261.67
2018-03-04T10:25:43.347Z,96254.70
2018-03-04T10:26:46.544Z,96254.09
2018-03-04T10:27:49.881Z,96259.48
2018-03-04T10:28:53.672Z,96255.21
2018-03-04T10:29:56.902Z,96257.70
2018-03-04T10:31:00.071Z,96248.95
2018-03-04T10:32:03.438Z,96253.12
2018-03-04T10:33:06.726Z,96253.38
2018-03-04T10:34:09.893Z,96251.40
2018-03-04T10:35:13.492Z,96252.68
2018-03-04T10:36:16.801Z,96245.52
2018-03-04T10:37:20.015Z,96240.57
2018-03-04T10:38:23.237Z,96244.43
2018-03-04T10:39:26.568Z,96247.94
2018-03-04T10:40:29.823Z,96241.51
2018-03-04T10:41:33.515Z,96237.21
2018-03-04T10:42:36.721Z,96239.84
2018-03-04T10:43:39.931Z,96240.10
2018-03-04T10:44:43.144Z,96247.55
2018-03-04T10:45:46.413Z,96246.54
2018-03-04T10:46:50.066Z,96248.83
2018-03-04T10:47:53.698Z,96243.83
2018-03-04T10:48:56.861Z,96250.27
2018-03-04T10:49:59.962Z,96242.25
2018-03-04T10:51:03.114Z,96244.17
2018-03-04T10:52:06.321Z,96243.48
2018-03-04T10:53:09.540Z,96249.69
2018-03-04T10:54:14.090Z,96255.31
2018-03-04T10:55:17.342Z,96239.53
2018-03-04T10:56:20.604Z,96244.52
2018-03-04T10:57:23.646Z,96248.92
2018-03-04T10:58:26.907Z,96243.08
2018-03-04T10:59:30.220Z,96249.81
2018-03-04T11:00:36.698Z,96242.48
2018-03-04T11:01:45.548Z,96247.95
2018-03-04T11:02:50.868Z,96248.14
2018-03-04T11:03:54.155Z,96247.80
2018-03-04T11:04:57.781Z,96246.64
2018-03-04T11:06:01.309Z,96242.45
2018-03-04T11:07:04.940Z,96241.69
2018-03-04T11:08:08.337Z,96241.86
2018-03-04T11:09:11.639Z,96234.51
2018-03-04T11:10:15.014Z,96242.58
2018-03-04T11:11:18.244Z,96240.51
2018-03-04T11:12:21.525Z,96242.82
2018-03-04T11:13:25.270Z,96241.42
2018-03-04T11:14:28.536Z,96239.56
2018-03-04T11:15:31.891Z,96235.69
2018-03-04T11:16:35.126Z,96240.59
2018-03-04T11:17:38.330Z,96235.20
2018-03-04T11:18:41.531Z,96233.98
2018-03-04T11:19:45.124Z,96234.72
2018-03-04T11:20:48.411Z,96225.06
2018-03-04T11:21:51.675Z,96229.36
2018-03-04T11:22:54.861Z,96230.34
2018-03-04T11:23:58.150Z,96229.42
2018-03-04T11:25:01.467Z,96225.03
2018-03-04T11:26:05.273Z,96221.58
2018-03-04T11:27:08.618Z,96227.08
2018-03-04T11:28:11.899Z,96226.34
2018-03-04T11:29:15.129Z,96224.12
2018-03-04T11:30:18.560Z,96233.86
2018-03-04T11:31:22.054Z,96229.56
2018-03-04T11:32:25.702Z,96226.88
2018-03-04T11:33:29.095Z,96224.06
2018-03-04T11:34:33.684Z,96222.77
2018-03-04T11:35:38.301Z,96220.52
2018-03-04T11:36:42.800Z,96219.61
2018-03-04T11:37:46.148Z,96223.22
2018-03-04T11:38:51.186Z,96221.48
2018-03-04T11:39:55.063Z,96218.16
2018-03-04T11:40:59.082Z,96223.39
2018-03-04T11:42:03.464Z,96225.86
2018-03-04T11:43:07.583Z,96227.23
2018-03-04T11:44:11.898Z,96222.03
2018-03-04T11:45:16.921Z,96219.55
2018-03-04T11:46:21.975Z,96229.84
2018-03-04T11:47:26.502Z,96226.97
2018-03-04T11:48:29.756Z,96229.04
2018-03-04T11:49:33.111Z,96225.84
2018-03-04T11:50:36.793Z,96220.19
2018-03-04T11:51:40.172Z,96223.38
2018-03-04T11:52:43.566Z,96221.77
2018-03-04T11:53:46.880Z,96220.65
2018-03-04T11:54:50.256Z,96220.41
2018-03-04T11:55:53.717Z,96225.31
2018-03-04T11:56:57.424Z,96219.02
2018-03-04T11:58:01.083Z,96221.33
2018-03-04T11:59:04.482Z,96215.04
2018-03-04T12:00:08.004Z,96219.19
2018-03-04T12:01:11.312Z,96209.79
2018-03-04T12:02:14.608Z,96216.02
2018-03-04T12:03:18.416Z,96217.96
2018-03-04T12:04:21.537Z,96222.52
2018-03-04T12:05:24.882Z,96222.48
2018-03-04T12:06:28.685Z,96220.25
2018-03-04T12:07:32.128Z,96215.95
2018-03-04T12:08:35.546Z,96212.05
2018-03-04T12:09:39.784Z,96207.14
2018-03-04T12:10:43.166Z,96214.81
2018-03-04T12:11:46.388Z,96206.89
2018-03-04T12:12:49.719Z,96216.42
2018-03-04T12:13:53.147Z,96218.42
2018-03-04T12:14:56.633Z,96226.75
2018-03-04T12:16:00.942Z,96215.92
2018-03-04T12:17:04.129Z,96213.55
2018-03-04T12:18:07.300Z,96209.65
2018-03-04T12:19:10.872Z,96208.61
2018-03-04T12:20:15.065Z,96202.50
2018-03-04T12:21:18.498Z,96202.91
2018-03-04T12:22:22.207Z,96196.08
2018-03-04T12:23:25.668Z,96197.84
2018-03-04T12:24:29.054Z,96202.12
2018-03-04T12:25:33.428Z,96181.06
2018-03-04T12:26:36.844Z,96195.80
2018-03-04T12:27:40.163Z,96187.06
2018-03-04T12:28:43.837Z,96188.73
2018-03-04T12:29:47.092Z,96194.12
2018-03-04T12:30:50.894Z,96184.11
2018-03-04T12:31:55.030Z,96173.09
2018-03-04T12:32:58.438Z,96182.87
2018-03-04T12:34:03.024Z,96172.14